Time;durP1;ratioP1;P1;durP2;ratioP2;P2;SDS_P1;SDS_P2;PMS_P1;PMS_P2;Temp;Humidity;BMP_temperature;BMP_pressure;BME280_temperature;BME280_humidity;BME280_pressure;Samples;Min_cycle;Max_cycle;Signal;HPM_P1;HPM_P2
2024/01/01 00:00:25;;;;;;;28.43;19.70;;;6.70;99.90;;;;;;5074941;28;20545;-69
2024/01/01 00:02:50;;;;;;;22.93;19.63;;;6.60;99.90;;;;;;5074984;28;20205;-69
2024/01/01 00:05:16;;;;;;;26.70;20.23;;;6.70;99.90;;;;;;5075289;28;20171;-69
2024/01/01 00:07:41;;;;;;;25.90;20.07;;;6.80;99.90;;;;;;5074849;28;20537;-69
2024/01/01 00:10:08;;;;;;;27.23;21.47;;;6.90;99.90;;;;;;5075674;28;20243;-69
2024/01/01 00:12:33;;;;;;;21.43;16.83;;;7.00;99.90;;;;;;5075093;28;20220;-69
2024/01/01 00:14:59;;;;;;;21.50;18.00;;;7.00;99.90;;;;;;5074751;28;20408;-68
2024/01/01 00:17:25;;;;;;;21.30;16.50;;;7.00;99.90;;;;;;5074833;28;20172;-69
2024/01/01 00:19:51;;;;;;;20.50;16.60;;;7.00;99.90;;;;;;5074501;28;20869;-69
2024/01/01 00:22:17;;;;;;;25.30;17.53;;;7.10;99.90;;;;;;5075235;28;20176;-69
2024/01/01 00:24:42;;;;;;;21.20;15.80;;;7.10;99.90;;;;;;5074549;28;20169;-69
2024/01/01 00:27:08;;;;;;;19.83;14.63;;;7.20;99.90;;;;;;5056427;28;20178;-68
2024/01/01 00:29:33;;;;;;;16.60;14.03;;;7.20;99.90;;;;;;5056316;28;20195;-69
2024/01/01 00:31:59;;;;;;;19.17;13.00;;;7.20;99.90;;;;;;5074521;28;20167;-68
2024/01/01 00:34:25;;;;;;;16.50;13.50;;;7.20;99.90;;;;;;5074736;28;20169;-68
2024/01/01 00:36:50;;;;;;;14.60;12.73;;;7.30;99.90;;;;;;5074805;28;20728;-69
2024/01/01 00:39:16;;;;;;;16.83;13.47;;;7.40;99.90;;;;;;5074225;28;20587;-69
2024/01/01 00:41:45;;;;;;;17.83;13.10;;;7.40;99.90;;;;;;5074165;28;20230;-69
2024/01/01 00:44:10;;;;;;;16.63;13.03;;;7.40;99.90;;;;;;5074555;28;20673;-68
2024/01/01 00:46:36;;;;;;;19.23;14.10;;;7.50;99.90;;;;;;5056275;28;20419;-68
2024/01/01 00:49:01;;;;;;;19.77;14.63;;;7.50;99.90;;;;;;5073977;28;20189;-68
2024/01/01 00:51:27;;;;;;;19.03;14.20;;;7.50;99.90;;;;;;5073989;28;20192;-69
2024/01/01 00:53:52;;;;;;;16.43;13.43;;;7.40;99.90;;;;;;5073940;28;20194;-69
2024/01/01 00:56:18;;;;;;;18.17;14.83;;;7.40;99.90;;;;;;5074276;28;20169;-68
2024/01/01 00:58:44;;;;;;;31.87;19.27;;;7.30;99.90;;;;;;5060000;28;20224;-69
2024/01/01 01:01:09;;;;;;;18.60;14.63;;;7.20;99.90;;;;;;5064920;28;20236;-69
2024/01/01 01:03:35;;;;;;;20.60;14.77;;;7.10;99.90;;;;;;5073897;28;20635;-68
2024/01/01 01:06:02;;;;;;;18.50;13.33;;;7.10;99.90;;;;;;5073987;28;20180;-68
2024/01/01 01:08:28;;;;;;;19.20;13.40;;;7.20;99.90;;;;;;5074145;28;20496;-69
2024/01/01 01:10:53;;;;;;;15.43;13.00;;;7.10;99.90;;;;;;5073586;28;20430;-68
2024/01/01 01:13:19;;;;;;;14.77;11.90;;;7.10;99.90;;;;;;5073839;28;20639;-69
2024/01/01 01:15:44;;;;;;;16.83;13.33;;;7.00;99.90;;;;;;5073594;28;20165;-69
2024/01/01 01:18:10;;;;;;;17.03;12.77;;;7.00;99.90;;;;;;5073679;28;20177;-69
2024/01/01 01:20:36;;;;;;;20.10;14.10;;;7.20;99.90;;;;;;5073058;28;20191;-69
2024/01/01 01:23:02;;;;;;;14.10;12.33;;;7.20;99.90;;;;;;5073526;28;20172;-69
2024/01/01 01:25:27;;;;;;;15.20;11.57;;;7.10;99.90;;;;;;5073345;28;20402;-69
2024/01/01 01:27:53;;;;;;;18.07;12.97;;;7.20;99.90;;;;;;5073355;28;20193;-69
2024/01/01 01:30:19;;;;;;;16.70;11.43;;;7.40;99.90;;;;;;5073421;28;20185;-69
2024/01/01 01:32:44;;;;;;;15.37;12.33;;;7.50;99.90;;;;;;5074100;28;20169;-67
2024/01/01 01:35:10;;;;;;;14.17;10.90;;;7.50;99.90;;;;;;5073186;28;20197;-69
2024/01/01 01:37:36;;;;;;;11.13;9.80;;;7.40;99.90;;;;;;5073246;28;20696;-69
2024/01/01 01:40:03;;;;;;;12.73;10.90;;;7.30;99.90;;;;;;5073067;28;20195;-69
2024/01/01 01:42:28;;;;;;;16.60;10.43;;;7.40;99.90;;;;;;5073193;28;20168;-69
2024/01/01 01:44:54;;;;;;;11.80;9.30;;;7.40;99.90;;;;;;5073164;28;20402;-69
2024/01/01 01:47:20;;;;;;;12.30;9.40;;;7.20;99.90;;;;;;5073013;28;20185;-67
2024/01/01 01:49:46;;;;;;;12.53;9.17;;;7.30;99.90;;;;;;5072891;28;20207;-70
2024/01/01 01:52:11;;;;;;;9.90;7.83;;;7.10;99.90;;;;;;5072994;28;20175;-70
2024/01/01 01:54:37;;;;;;;15.30;9.00;;;7.10;99.90;;;;;;5073148;28;20160;-70
2024/01/01 01:57:04;;;;;;;8.57;6.73;;;7.10;99.90;;;;;;5073093;28;20279;-70
2024/01/01 01:59:30;;;;;;;10.80;7.90;;;7.00;99.90;;;;;;5071623;28;20262;-70
2024/01/01 02:01:57;;;;;;;10.83;7.93;;;7.10;99.90;;;;;;5072996;28;20932;-69
2024/01/01 02:04:24;;;;;;;12.80;8.93;;;7.20;99.90;;;;;;5073171;28;20773;-70
2024/01/01 02:06:49;;;;;;;12.43;8.50;;;7.20;99.90;;;;;;5072908;28;20413;-69
2024/01/01 02:09:15;;;;;;;9.77;8.10;;;7.20;99.90;;;;;;5072777;28;20453;-69
2024/01/01 02:11:40;;;;;;;9.50;7.27;;;7.10;99.90;;;;;;5072845;28;20196;-69
2024/01/01 02:14:10;;;;;;;8.70;7.10;;;7.10;99.90;;;;;;5073185;28;20164;-68
2024/01/01 02:16:36;;;;;;;14.83;7.70;;;7.20;99.90;;;;;;5072853;28;20167;-68
2024/01/01 02:19:05;;;;;;;9.73;6.80;;;7.30;99.90;;;;;;5072646;28;20487;-69
2024/01/01 02:21:31;;;;;;;12.30;6.43;;;7.40;99.90;;;;;;5072434;28;20730;-68
2024/01/01 02:23:57;;;;;;;11.17;7.33;;;7.40;99.90;;;;;;5072976;28;20411;-68
2024/01/01 02:26:22;;;;;;;7.73;6.20;;;7.30;99.90;;;;;;5072729;28;20719;-68
2024/01/01 02:28:48;;;;;;;9.23;7.57;;;7.30;99.90;;;;;;5072609;28;20534;-70
2024/01/01 02:31:13;;;;;;;10.13;7.37;;;7.20;99.90;;;;;;5072488;28;20555;-69
2024/01/01 02:33:39;;;;;;;8.57;6.57;;;7.30;99.90;;;;;;5072765;28;20252;-69
2024/01/01 02:36:05;;;;;;;9.97;7.03;;;7.30;99.90;;;;;;5072654;28;20190;-69
2024/01/01 02:38:30;;;;;;;8.67;7.30;;;7.30;99.90;;;;;;5073060;28;20539;-69
2024/01/01 02:40:56;;;;;;;11.90;7.97;;;7.30;99.90;;;;;;5072741;28;20417;-70
2024/01/01 02:43:21;;;;;;;8.57;6.17;;;7.20;99.90;;;;;;5072754;28;20169;-68
2024/01/01 02:45:47;;;;;;;8.73;7.80;;;7.20;99.90;;;;;;5073709;28;20174;-69
2024/01/01 02:48:12;;;;;;;7.87;6.10;;;7.10;99.90;;;;;;5054956;28;20200;-70
2024/01/01 02:50:38;;;;;;;10.87;6.90;;;7.10;99.90;;;;;;5075169;28;20244;-70
2024/01/01 02:53:04;;;;;;;7.93;6.60;;;7.20;99.90;;;;;;5060183;28;20235;-70
2024/01/01 02:55:29;;;;;;;9.93;7.60;;;7.30;99.90;;;;;;5057292;28;20178;-70
2024/01/01 02:57:55;;;;;;;7.70;6.47;;;7.20;99.90;;;;;;5056637;28;20447;-69
2024/01/01 03:00:20;;;;;;;10.13;6.70;;;7.20;99.90;;;;;;5079983;22;20220;-69
2024/01/01 03:02:46;;;;;;;11.00;7.67;;;7.10;99.90;;;;;;5055668;28;20216;-69
2024/01/01 03:05:12;;;;;;;11.97;7.60;;;7.10;99.90;;;;;;5055549;28;20195;-70
2024/01/01 03:07:37;;;;;;;12.10;7.10;;;7.10;99.90;;;;;;5055697;28;20593;-70
2024/01/01 03:10:04;;;;;;;12.73;8.30;;;7.00;99.90;;;;;;5056588;28;20185;-71
2024/01/01 03:12:30;;;;;;;8.77;7.53;;;7.00;99.90;;;;;;5056571;28;20166;-70
2024/01/01 03:14:55;;;;;;;11.47;8.63;;;6.90;99.90;;;;;;5055458;28;20452;-69
2024/01/01 03:17:21;;;;;;;11.90;7.97;;;6.90;99.90;;;;;;5055259;28;20161;-68
2024/01/01 03:19:47;;;;;;;12.50;8.30;;;6.90;99.90;;;;;;5053777;28;20646;-68
2024/01/01 03:22:12;;;;;;;10.80;7.40;;;6.90;99.90;;;;;;5055096;28;20263;-68
2024/01/01 03:24:38;;;;;;;9.93;7.50;;;6.90;99.90;;;;;;5055111;28;20493;-68
2024/01/01 03:27:03;;;;;;;12.53;9.03;;;6.90;99.90;;;;;;5054784;28;20192;-68
2024/01/01 03:29:29;;;;;;;10.50;7.30;;;6.80;99.90;;;;;;5055003;28;20186;-68
2024/01/01 03:31:54;;;;;;;9.83;7.03;;;7.00;99.90;;;;;;5055240;28;20224;-69
2024/01/01 03:34:20;;;;;;;9.47;7.97;;;7.10;99.90;;;;;;5053757;28;20207;-69
2024/01/01 03:36:45;;;;;;;9.07;7.40;;;7.10;99.90;;;;;;5055019;28;20272;-69
2024/01/01 03:39:11;;;;;;;17.83;9.03;;;7.20;99.90;;;;;;5055029;28;20644;-69
2024/01/01 03:41:37;;;;;;;11.97;7.57;;;7.20;99.90;;;;;;5054993;28;20281;-68
2024/01/01 03:44:02;;;;;;;10.00;7.73;;;7.30;99.90;;;;;;5053718;28;20637;-69
2024/01/01 03:46:28;;;;;;;10.53;8.23;;;7.30;99.90;;;;;;5054928;28;20623;-69
2024/01/01 03:48:53;;;;;;;11.53;8.53;;;7.30;99.90;;;;;;5054677;28;20196;-68
2024/01/01 03:51:19;;;;;;;10.57;7.77;;;7.40;99.90;;;;;;5054420;28;20219;-70
2024/01/01 03:53:44;;;;;;;12.90;7.97;;;7.30;99.90;;;;;;5053341;28;20193;-70
2024/01/01 03:56:11;;;;;;;8.80;7.00;;;7.20;99.90;;;;;;5054839;28;20249;-70
2024/01/01 03:58:36;;;;;;;7.80;6.60;;;7.10;99.90;;;;;;5054793;28;20208;-69
2024/01/01 04:01:02;;;;;;;7.80;5.73;;;7.20;99.90;;;;;;5053993;28;20437;-68
2024/01/01 04:03:27;;;;;;;7.30;5.80;;;7.30;99.90;;;;;;5054144;28;20178;-68
2024/01/01 04:05:53;;;;;;;6.67;5.20;;;7.30;99.90;;;;;;5054308;28;20181;-69
2024/01/01 04:08:19;;;;;;;9.30;5.57;;;7.40;99.90;;;;;;5054141;28;20193;-70
2024/01/01 04:10:44;;;;;;;6.40;4.53;;;7.40;99.90;;;;;;5054820;28;20189;-70
2024/01/01 04:13:10;;;;;;;8.87;5.30;;;7.40;99.90;;;;;;5054571;28;20166;-69
2024/01/01 04:15:35;;;;;;;5.70;4.00;;;7.20;99.90;;;;;;5054224;28;20244;-69
2024/01/01 04:18:02;;;;;;;7.00;4.50;;;7.10;99.90;;;;;;5054370;28;20488;-69
2024/01/01 04:20:27;;;;;;;7.67;5.80;;;7.20;99.90;;;;;;5052746;28;20298;-70
2024/01/01 04:22:53;;;;;;;5.70;4.20;;;7.20;99.90;;;;;;5054498;28;20408;-69
2024/01/01 04:25:19;;;;;;;10.10;5.20;;;7.20;99.90;;;;;;5053937;28;20168;-69
2024/01/01 04:27:44;;;;;;;4.63;3.70;;;7.10;99.90;;;;;;5053736;28;20180;-69
2024/01/01 04:30:10;;;;;;;8.23;5.10;;;7.00;99.90;;;;;;5052652;28;21002;-69
2024/01/01 04:32:36;;;;;;;4.90;2.87;;;6.90;99.90;;;;;;5053881;28;20169;-69
2024/01/01 04:35:05;;;;;;;3.43;2.53;;;6.80;99.90;;;;;;5053607;28;20162;-68
2024/01/01 04:37:30;;;;;;;4.47;2.80;;;6.70;99.90;;;;;;5053697;28;20551;-69
2024/01/01 04:39:56;;;;;;;4.73;2.70;;;6.70;99.90;;;;;;5053545;28;20491;-69
2024/01/01 04:42:21;;;;;;;3.67;2.60;;;6.80;99.90;;;;;;5053640;28;20176;-69
2024/01/01 04:44:47;;;;;;;3.87;2.20;;;6.80;99.90;;;;;;5054298;28;20167;-69
2024/01/01 04:47:13;;;;;;;4.20;2.27;;;6.90;99.90;;;;;;5054319;28;20169;-69
2024/01/01 04:49:41;;;;;;;5.70;2.70;;;6.90;99.90;;;;;;5053646;28;20194;-69
2024/01/01 04:52:06;;;;;;;4.03;2.47;;;6.90;99.90;;;;;;5053464;28;20403;-69
2024/01/01 04:54:32;;;;;;;3.53;2.47;;;6.90;99.90;;;;;;5054242;28;20498;-69
2024/01/01 04:56:57;;;;;;;4.97;2.87;;;6.80;99.90;;;;;;5053464;28;20196;-69
2024/01/01 04:59:23;;;;;;;4.70;2.30;;;6.80;99.90;;;;;;5052903;28;20172;-69
2024/01/01 05:01:48;;;;;;;7.93;2.90;;;6.80;99.90;;;;;;5053096;28;20211;-69
2024/01/01 05:04:15;;;;;;;3.80;1.93;;;6.70;99.90;;;;;;5053145;28;20169;-69
2024/01/01 05:06:40;;;;;;;5.07;2.53;;;6.70;99.90;;;;;;5053134;28;20222;-69
2024/01/01 05:09:06;;;;;;;5.27;2.37;;;6.60;99.90;;;;;;5053130;28;20436;-69
2024/01/01 05:11:33;;;;;;;4.17;2.00;;;6.70;99.90;;;;;;5053060;28;20188;-69
2024/01/01 05:13:59;;;;;;;4.40;2.90;;;6.90;99.90;;;;;;5052248;28;20203;-69
2024/01/01 05:16:25;;;;;;;6.77;2.30;;;6.80;99.90;;;;;;5053300;28;20419;-69
2024/01/01 05:18:50;;;;;;;5.87;3.07;;;6.70;99.90;;;;;;5053119;28;20411;-68
2024/01/01 05:21:16;;;;;;;3.83;2.20;;;6.70;99.90;;;;;;5052898;28;20189;-68
2024/01/01 05:23:41;;;;;;;4.27;1.93;;;6.60;99.90;;;;;;5052879;28;20307;-69
2024/01/01 05:26:07;;;;;;;6.20;3.47;;;6.40;99.90;;;;;;5052909;28;20175;-69
2024/01/01 05:28:33;;;;;;;3.23;1.47;;;6.40;99.90;;;;;;5052983;28;20210;-69
2024/01/01 05:30:59;;;;;;;5.00;1.53;;;6.40;99.90;;;;;;5052382;28;20185;-69
2024/01/01 05:33:24;;;;;;;4.20;1.90;;;6.60;99.90;;;;;;5052743;28;20199;-69
2024/01/01 05:35:50;;;;;;;3.83;1.33;;;6.70;99.90;;;;;;5052620;28;20168;-69
2024/01/01 05:38:17;;;;;;;3.80;1.90;;;6.80;99.90;;;;;;5051414;28;20229;-69
2024/01/01 05:40:44;;;;;;;3.70;1.73;;;6.70;99.90;;;;;;5052835;28;20671;-69
2024/01/01 05:43:09;;;;;;;2.90;1.67;;;6.70;99.90;;;;;;5053117;28;20410;-69
2024/01/01 05:45:35;;;;;;;1.90;1.53;;;6.60;99.90;;;;;;5052690;28;20404;-69
2024/01/01 05:48:00;;;;;;;2.20;1.60;;;6.60;99.90;;;;;;5052732;28;20219;-69
2024/01/01 05:50:28;;;;;;;6.80;2.03;;;6.50;99.90;;;;;;5052446;28;20185;-69
2024/01/01 05:52:53;;;;;;;4.27;1.80;;;6.50;99.90;;;;;;5051130;28;20175;-69
2024/01/01 05:55:19;;;;;;;6.73;2.13;;;6.60;99.90;;;;;;5052536;28;20771;-69
2024/01/01 05:57:44;;;;;;;3.90;1.97;;;6.60;99.90;;;;;;5052349;28;20170;-69
2024/01/01 06:00:12;;;;;;;3.63;2.37;;;6.60;99.90;;;;;;5052454;28;20741;-69
2024/01/01 06:02:37;;;;;;;4.43;1.90;;;6.60;99.90;;;;;;5052305;28;20192;-69
2024/01/01 06:05:03;;;;;;;5.17;2.53;;;6.70;99.90;;;;;;5051187;28;20947;-68
2024/01/01 06:07:29;;;;;;;5.63;2.60;;;6.70;99.90;;;;;;5052055;28;20275;-69
2024/01/01 06:09:54;;;;;;;7.90;2.50;;;6.70;99.90;;;;;;5052242;28;20188;-69
2024/01/01 06:12:20;;;;;;;5.80;3.13;;;6.60;99.90;;;;;;5052314;28;20168;-68
2024/01/01 06:14:46;;;;;;;4.47;2.67;;;6.60;99.90;;;;;;5052128;28;20160;-69
2024/01/01 06:17:12;;;;;;;3.10;2.20;;;6.60;99.90;;;;;;5052571;28;20167;-70
2024/01/01 06:19:37;;;;;;;6.93;2.20;;;6.50;99.90;;;;;;5051891;28;20407;-70
2024/01/01 06:22:03;;;;;;;2.20;1.93;;;6.50;99.90;;;;;;5051971;28;20232;-69
2024/01/01 06:24:28;;;;;;;4.63;2.70;;;6.50;99.90;;;;;;5053468;28;20169;-70
2024/01/01 06:26:54;;;;;;;3.40;2.20;;;6.60;99.90;;;;;;5056386;28;20174;-69
2024/01/01 06:29:19;;;;;;;3.40;2.50;;;6.60;99.90;;;;;;5056362;28;20192;-70
2024/01/01 06:31:45;;;;;;;3.10;2.23;;;6.60;99.90;;;;;;5056023;28;20224;-69
2024/01/01 06:34:11;;;;;;;7.40;2.20;;;6.60;99.90;;;;;;5056503;28;20573;-70
2024/01/01 06:36:36;;;;;;;5.40;2.20;;;6.50;99.90;;;;;;5056439;28;20240;-70
2024/01/01 06:39:03;;;;;;;7.03;2.50;;;6.50;99.90;;;;;;5056230;28;20179;-69
2024/01/01 06:41:28;;;;;;;4.50;2.70;;;6.40;99.90;;;;;;5056254;28;20254;-69
2024/01/01 06:43:54;;;;;;;6.87;2.17;;;6.30;99.90;;;;;;5055896;28;20889;-69
2024/01/01 06:46:19;;;;;;;5.30;2.30;;;6.20;99.90;;;;;;5055829;28;20168;-69
2024/01/01 06:48:45;;;;;;;4.50;2.63;;;6.20;99.90;;;;;;5056164;28;20188;-69
2024/01/01 06:51:11;;;;;;;3.63;1.93;;;6.30;99.90;;;;;;5055137;28;20650;-69
2024/01/01 06:53:37;;;;;;;3.50;2.10;;;6.20;99.90;;;;;;5056074;28;20621;-70
2024/01/01 06:56:03;;;;;;;5.97;1.73;;;6.20;99.90;;;;;;5055825;28;20635;-69
2024/01/01 06:58:28;;;;;;;5.57;2.40;;;6.20;99.90;;;;;;5055788;28;20413;-69
2024/01/01 07:00:54;;;;;;;6.27;2.13;;;6.20;99.90;;;;;;5055901;28;20450;-69
2024/01/01 07:03:19;;;;;;;2.40;1.70;;;6.10;99.90;;;;;;5055701;28;20538;-70
2024/01/01 07:05:45;;;;;;;3.27;2.03;;;6.00;99.90;;;;;;5055096;28;20246;-70
2024/01/01 07:08:12;;;;;;;5.57;1.80;;;6.10;99.90;;;;;;5055862;28;20187;-69
2024/01/01 07:10:37;;;;;;;3.37;1.80;;;6.00;99.90;;;;;;5055449;28;20665;-70
2024/01/01 07:13:03;;;;;;;7.23;2.10;;;6.00;99.90;;;;;;5055608;28;20399;-69
2024/01/01 07:15:28;;;;;;;4.23;2.13;;;6.10;99.90;;;;;;5055407;28;20175;-69
2024/01/01 07:17:54;;;;;;;3.77;1.60;;;6.30;99.90;;;;;;5055360;28;20224;-69
2024/01/01 07:20:19;;;;;;;2.80;1.97;;;6.30;99.90;;;;;;5055403;28;20198;-69
2024/01/01 07:22:45;;;;;;;3.90;1.70;;;6.20;99.90;;;;;;5055334;28;20180;-70
2024/01/01 07:25:11;;;;;;;6.40;2.63;;;6.20;99.90;;;;;;5055105;28;20168;-69
2024/01/01 07:27:36;;;;;;;6.00;1.77;;;6.10;99.90;;;;;;5055393;28;20173;-69
2024/01/01 07:30:03;;;;;;;3.13;1.90;;;6.10;99.90;;;;;;5055296;28;20588;-69
2024/01/01 07:32:30;;;;;;;3.80;1.90;;;6.00;99.90;;;;;;5055473;28;20270;-71
2024/01/01 07:34:56;;;;;;;4.90;1.60;;;5.90;99.90;;;;;;5055512;28;20912;-69
2024/01/01 07:37:22;;;;;;;3.13;1.33;;;5.90;99.90;;;;;;5054582;28;20459;-68
2024/01/01 07:39:47;;;;;;;3.47;1.63;;;5.80;99.90;;;;;;5055446;28;20917;-69
2024/01/01 07:42:15;;;;;;;3.33;1.53;;;5.90;99.90;;;;;;5055677;28;20180;-69
2024/01/01 07:44:41;;;;;;;5.43;2.37;;;6.00;99.90;;;;;;5055905;28;20165;-69
2024/01/01 07:47:08;;;;;;;3.37;1.70;;;6.00;99.90;;;;;;5055250;28;20477;-70
2024/01/01 07:49:33;;;;;;;2.80;1.70;;;6.00;99.90;;;;;;5054848;28;20454;-68
2024/01/01 07:51:59;;;;;;;3.17;1.37;;;6.10;99.90;;;;;;5054520;28;20425;-68
2024/01/01 07:54:26;;;;;;;3.30;1.80;;;6.10;99.90;;;;;;5054697;28;20164;-69
2024/01/01 07:56:52;;;;;;;3.33;1.90;;;6.20;99.90;;;;;;5054718;28;20190;-69
2024/01/01 07:59:17;;;;;;;4.60;1.40;;;6.20;99.90;;;;;;5054598;28;20436;-69
2024/01/01 08:01:43;;;;;;;5.90;1.80;;;6.40;99.90;;;;;;5054699;28;20227;-69
2024/01/01 08:04:08;;;;;;;3.93;1.73;;;6.40;99.90;;;;;;5054719;28;20176;-69
2024/01/01 08:06:35;;;;;;;8.37;1.97;;;6.50;99.90;;;;;;5054641;28;20183;-69
2024/01/01 08:09:00;;;;;;;6.50;2.50;;;6.50;99.90;;;;;;5054455;28;20193;-70
2024/01/01 08:11:26;;;;;;;4.87;1.40;;;6.60;99.90;;;;;;5052863;28;21096;-70
2024/01/01 08:13:51;;;;;;;3.27;1.40;;;6.50;99.90;;;;;;5054240;28;20165;-70
2024/01/01 08:16:19;;;;;;;4.07;1.40;;;6.60;99.90;;;;;;5054520;28;20192;-70
2024/01/01 08:18:46;;;;;;;2.23;1.70;;;6.50;99.90;;;;;;5053802;28;20168;-69
2024/01/01 08:21:11;;;;;;;4.50;1.63;;;6.50;99.90;;;;;;5054111;28;20432;-70
2024/01/01 08:23:38;;;;;;;6.67;1.73;;;6.60;99.90;;;;;;5053837;28;20413;-70
2024/01/01 08:26:04;;;;;;;4.17;1.80;;;6.60;99.90;;;;;;5054382;28;20169;-70
2024/01/01 08:28:32;;;;;;;5.20;1.70;;;6.80;99.90;;;;;;5053936;28;20517;-70
2024/01/01 08:30:58;;;;;;;5.27;2.03;;;6.90;99.90;;;;;;5054387;28;20423;-70
2024/01/01 08:33:24;;;;;;;10.50;2.80;;;7.00;99.90;;;;;;5054261;28;20773;-70
2024/01/01 08:35:53;;;;;;;4.23;1.37;;;7.00;99.90;;;;;;5053976;28;20487;-70
2024/01/01 08:38:19;;;;;;;6.00;1.70;;;7.00;99.90;;;;;;5053869;28;20200;-69
2024/01/01 08:40:44;;;;;;;8.33;1.97;;;7.00;99.90;;;;;;5053671;28;20834;-69
2024/01/01 08:43:10;;;;;;;4.63;1.57;;;7.00;99.90;;;;;;5052372;28;20415;-68
2024/01/01 08:45:36;;;;;;;4.07;1.60;;;6.90;99.90;;;;;;5053857;28;20177;-68
2024/01/01 08:48:01;;;;;;;3.23;1.73;;;7.00;99.90;;;;;;5052645;28;20231;-68
2024/01/01 08:50:27;;;;;;;3.30;1.53;;;7.20;99.90;;;;;;5052289;28;20197;-68
2024/01/01 08:52:52;;;;;;;3.37;1.80;;;7.20;99.90;;;;;;5053796;28;20178;-69
2024/01/01 08:55:18;;;;;;;4.13;2.13;;;7.40;99.90;;;;;;5053194;28;20229;-68
2024/01/01 08:57:43;;;;;;;3.67;1.50;;;7.50;99.90;;;;;;5054200;28;20528;-69
2024/01/01 09:02:42;;;;;;;6.00;2.30;;;7.50;99.90;;;;;;5072820;28;20237;-68
2024/01/01 09:05:08;;;;;;;8.10;2.37;;;7.50;99.90;;;;;;5074009;28;20414;-69
2024/01/01 09:07:33;;;;;;;3.80;1.80;;;7.70;99.90;;;;;;5056023;28;20712;-69
2024/01/01 09:10:01;;;;;;;4.40;2.17;;;7.60;99.90;;;;;;5073934;28;20204;-69
2024/01/01 09:12:27;;;;;;;10.03;2.13;;;7.80;99.90;;;;;;5073750;28;20744;-68
2024/01/01 09:14:53;;;;;;;5.67;3.20;;;7.90;99.90;;;;;;5073716;28;20400;-68
2024/01/01 09:17:19;;;;;;;5.70;2.50;;;7.80;99.90;;;;;;5073605;28;20395;-68
2024/01/01 09:19:44;;;;;;;3.60;2.00;;;7.80;99.90;;;;;;5073532;28;20165;-68
2024/01/01 09:22:10;;;;;;;5.40;2.90;;;8.00;99.90;;;;;;5055461;28;20190;-68
2024/01/01 09:24:35;;;;;;;4.40;2.60;;;8.10;99.90;;;;;;5055535;28;20189;-69
2024/01/01 09:27:01;;;;;;;3.30;1.73;;;8.20;99.90;;;;;;5073419;28;20694;-69
2024/01/01 09:29:27;;;;;;;6.03;2.20;;;8.20;99.90;;;;;;5073117;28;20575;-69
2024/01/01 09:31:52;;;;;;;8.73;2.03;;;8.20;99.90;;;;;;5073585;28;20652;-68
2024/01/01 09:34:18;;;;;;;4.30;2.10;;;8.30;99.90;;;;;;5073314;28;20215;-69
2024/01/01 09:36:43;;;;;;;3.60;1.60;;;8.40;99.90;;;;;;5073584;28;20174;-69
2024/01/01 09:39:09;;;;;;;6.70;1.97;;;8.40;99.90;;;;;;5073453;28;20167;-69
2024/01/01 09:41:34;;;;;;;4.73;1.50;;;8.60;99.90;;;;;;5055120;28;20288;-70
2024/01/01 09:44:01;;;;;;;4.43;1.70;;;8.70;99.90;;;;;;5073633;28;20169;-69
2024/01/01 09:46:32;;;;;;;2.20;1.10;;;9.00;99.90;;;;;;5073238;28;20269;-69
2024/01/01 09:48:59;;;;;;;2.33;1.37;;;8.90;99.90;;;;;;5073029;28;20933;-69
2024/01/01 09:51:24;;;;;;;3.83;1.40;;;8.80;99.90;;;;;;5073044;28;20437;-69
2024/01/01 09:53:52;;;;;;;4.80;1.83;;;8.80;99.90;;;;;;5053291;28;20402;-69
2024/01/01 09:56:18;;;;;;;3.63;1.27;;;8.90;99.90;;;;;;5035859;28;20222;-69
2024/01/01 09:58:44;;;;;;;5.83;1.63;;;9.00;99.90;;;;;;5052738;28;20978;-69
2024/01/01 10:01:18;;;;;;;2.10;1.23;;;8.90;99.90;;;;;;5052858;28;20455;-69
2024/01/01 10:03:57;;;;;;;5.60;1.30;;;9.00;99.90;;;;;;5072151;28;20397;-69
2024/01/01 10:06:23;;;;;;;5.67;1.37;;;9.00;99.90;;;;;;5073085;28;20385;-69
2024/01/01 10:08:48;;;;;;;3.10;1.20;;;8.90;99.90;;;;;;5072912;28;20494;-69
2024/01/01 10:11:20;;;;;;;3.00;1.20;;;8.70;99.90;;;;;;5055561;28;20225;-69
2024/01/01 10:13:49;;;;;;;4.70;1.07;;;8.80;99.90;;;;;;5073168;28;20411;-69
2024/01/01 10:16:35;;;;;;;4.60;1.50;;;8.60;99.90;;;;;;5073038;28;20400;-69
2024/01/01 10:19:01;;;;;;;5.13;1.40;;;8.60;99.90;;;;;;5072537;28;20845;-69
2024/01/01 10:21:28;;;;;;;2.87;1.07;;;8.50;99.90;;;;;;5073071;28;20437;-69
2024/01/01 10:23:54;;;;;;;2.83;1.53;;;8.50;99.90;;;;;;5052892;28;20430;-69
2024/01/01 10:26:20;;;;;;;4.53;1.50;;;8.60;99.90;;;;;;5052773;28;20464;-70
2024/01/01 10:28:46;;;;;;;6.60;1.43;;;8.70;99.90;;;;;;5052758;28;20452;-69
2024/01/01 10:31:15;;;;;;;3.13;1.10;;;8.80;99.90;;;;;;5053154;28;20224;-69
2024/01/01 10:33:42;;;;;;;2.83;1.20;;;8.80;99.90;;;;;;5053144;28;20671;-70
2024/01/01 10:36:08;;;;;;;2.70;1.43;;;8.90;99.90;;;;;;5073330;28;20412;-70
2024/01/01 10:38:35;;;;;;;2.70;1.40;;;9.00;99.90;;;;;;5072876;28;20467;-69
2024/01/01 10:41:02;;;;;;;4.87;1.73;;;9.10;99.90;;;;;;5072855;28;20809;-70
2024/01/01 10:43:28;;;;;;;5.43;1.77;;;9.20;99.90;;;;;;5073261;28;20471;-70
2024/01/01 10:46:03;;;;;;;4.67;1.70;;;9.30;99.90;;;;;;5074252;28;20517;-70
2024/01/01 10:48:32;;;;;;;3.17;1.60;;;9.30;99.90;;;;;;5073285;28;20567;-70
2024/01/01 10:50:58;;;;;;;5.73;1.53;;;9.40;99.90;;;;;;5073369;28;20420;-70
2024/01/01 10:53:39;;;;;;;4.43;1.70;;;9.30;99.90;;;;;;5072945;28;20557;-70
2024/01/01 10:56:32;;;;;;;4.40;1.70;;;9.50;99.90;;;;;;5072886;28;20524;-70
2024/01/01 10:59:06;;;;;;;5.77;1.80;;;9.60;99.90;;;;;;5073361;28;20385;-70
2024/01/01 11:01:35;;;;;;;4.40;1.70;;;9.70;99.90;;;;;;5072679;28;20435;-70
2024/01/01 11:04:01;;;;;;;4.87;1.90;;;9.80;99.90;;;;;;5052424;28;20979;-70
2024/01/01 11:06:31;;;;;;;5.27;1.50;;;9.80;99.90;;;;;;5052981;28;20447;-70
2024/01/01 11:08:57;;;;;;;5.60;1.77;;;9.80;99.90;;;;;;5034743;28;20274;-70
2024/01/01 11:11:26;;;;;;;4.20;1.53;;;9.70;99.90;;;;;;5053356;28;20435;-70
2024/01/01 11:13:54;;;;;;;6.70;1.87;;;9.90;99.90;;;;;;5075329;28;21043;-69
2024/01/01 11:16:20;;;;;;;5.17;2.00;;;10.00;99.90;;;;;;5076238;28;20425;-70
2024/01/01 11:18:47;;;;;;;3.77;1.60;;;10.20;99.90;;;;;;5076125;28;20413;-70
2024/01/01 11:21:27;;;;;;;5.10;1.80;;;10.10;99.90;;;;;;5076092;28;20445;-70
2024/01/01 11:23:53;;;;;;;5.63;2.03;;;10.20;99.90;;;;;;5075904;28;20989;-69
2024/01/01 11:26:34;;;;;;;6.37;1.90;;;10.30;99.90;;;;;;5076052;28;20398;-70
2024/01/01 11:29:02;;;;;;;4.60;1.40;;;10.40;99.90;;;;;;5076113;28;20457;-69
2024/01/01 11:31:29;;;;;;;4.17;1.83;;;10.50;99.90;;;;;;5075638;28;20424;-70
2024/01/01 11:34:06;;;;;;;4.50;1.53;;;11.00;99.90;;;;;;5075901;28;20396;-70
2024/01/01 11:36:33;;;;;;;8.27;1.60;;;11.70;99.90;;;;;;5076257;28;20943;-70
2024/01/01 11:38:59;;;;;;;6.37;1.90;;;11.40;99.90;;;;;;5076459;28;20455;-69
2024/01/01 11:41:26;;;;;;;4.43;1.93;;;11.00;99.90;;;;;;5076223;28;20534;-70
2024/01/01 11:43:51;;;;;;;4.00;1.60;;;10.60;99.90;;;;;;5075840;28;20411;-70
2024/01/01 11:46:27;;;;;;;6.40;2.33;;;10.40;99.90;;;;;;5075808;28;20404;-70
2024/01/01 11:48:57;;;;;;;4.30;1.50;;;10.30;99.90;;;;;;5057469;28;20218;-70
2024/01/01 11:51:24;;;;;;;7.17;2.00;;;10.00;99.90;;;;;;5075631;28;20419;-70
2024/01/01 11:54:12;;;;;;;6.67;2.30;;;10.00;99.90;;;;;;5075678;28;20419;-70
2024/01/01 11:56:37;;;;;;;5.50;2.67;;;9.90;99.90;;;;;;5075999;28;20396;-69
2024/01/01 11:59:06;;;;;;;4.80;2.03;;;9.80;99.90;;;;;;5075614;28;20400;-69
2024/01/01 12:01:33;;;;;;;6.63;3.10;;;9.90;99.90;;;;;;5075293;28;20211;-70
2024/01/01 12:04:00;;;;;;;3.77;2.20;;;9.90;99.90;;;;;;5075216;28;20418;-70
2024/01/01 12:06:26;;;;;;;4.03;2.20;;;10.00;99.90;;;;;;5075193;28;20411;-70
2024/01/01 12:09:09;;;;;;;6.97;1.77;;;10.10;99.90;;;;;;5074997;28;20456;-69
2024/01/01 12:11:39;;;;;;;3.40;1.50;;;10.10;99.90;;;;;;5074772;28;20461;-70
2024/01/01 12:14:06;;;;;;;8.33;1.70;;;10.40;99.90;;;;;;5055229;28;20389;-69
2024/01/01 12:16:32;;;;;;;7.53;2.70;;;10.20;99.90;;;;;;5055221;28;20773;-69
2024/01/01 12:18:59;;;;;;;3.67;1.90;;;10.10;99.90;;;;;;5055291;28;20406;-69
2024/01/01 12:21:37;;;;;;;7.00;2.63;;;10.20;99.90;;;;;;5055003;28;20429;-70
2024/01/01 12:24:05;;;;;;;7.63;2.33;;;10.20;99.90;;;;;;5074634;28;20420;-69
2024/01/01 12:26:34;;;;;;;7.90;3.40;;;10.10;99.90;;;;;;5057515;28;20766;-70
2024/01/01 12:29:15;;;;;;;6.50;2.63;;;9.80;99.90;;;;;;5074957;28;20475;-69
2024/01/01 12:31:45;;;;;;;5.70;2.00;;;9.70;99.90;;;;;;5075002;28;20466;-69
2024/01/01 12:34:17;;;;;;;5.97;2.40;;;10.10;99.90;;;;;;5055180;28;20404;-70
2024/01/01 12:36:45;;;;;;;5.60;2.17;;;10.60;99.90;;;;;;5054534;28;20938;-70
2024/01/01 12:39:11;;;;;;;8.67;1.93;;;11.10;99.90;;;;;;5054925;28;20416;-70
2024/01/01 12:41:38;;;;;;;6.93;2.30;;;11.40;99.90;;;;;;5054624;28;20422;-69
2024/01/01 12:44:04;;;;;;;6.50;1.67;;;11.30;99.90;;;;;;5073954;28;20419;-69
2024/01/01 12:46:30;;;;;;;5.10;1.70;;;10.70;99.90;;;;;;5074359;28;20823;-70
2024/01/01 12:48:56;;;;;;;4.10;1.57;;;10.70;99.90;;;;;;5074251;28;20448;-70
2024/01/01 12:51:24;;;;;;;4.77;1.80;;;10.70;99.90;;;;;;5074132;28;20426;-69